sensor_id;sensor_type;location;lat;lon;timestamp;P1;durP1;ratioP1;P2;durP2;ratioP2
13477;SDS011;12598;62.382;17.344;2023-01-28T00:00:52;1.83;;;0.57;;
13477;SDS011;12598;62.382;17.344;2023-01-28T00:01:54;1.15;;;0.60;;
13477;SDS011;12598;62.382;17.344;2023-01-28T00:02:56;0.95;;;0.82;;
13477;SDS011;12598;62.382;17.344;2023-01-28T00:03:58;0.90;;;0.80;;
13477;SDS011;12598;62.382;17.344;2023-01-28T00:05:00;1.35;;;0.70;;
13477;SDS011;12598;62.382;17.344;2023-01-28T00:06:03;1.48;;;0.98;;
13477;SDS011;12598;62.382;17.344;2023-01-28T00:07:07;1.30;;;0.80;;
13477;SDS011;12598;62.382;17.344;2023-01-28T00:08:09;0.70;;;0.60;;
13477;SDS011;12598;62.382;17.344;2023-01-28T00:09:11;1.17;;;0.57;;
13477;SDS011;12598;62.382;17.344;2023-01-28T00:10:13;1.35;;;0.60;;
13477;SDS011;12598;62.382;17.344;2023-01-28T00:11:15;0.52;;;0.50;;
13477;SDS011;12598;62.382;17.344;2023-01-28T00:12:17;1.52;;;0.73;;
13477;SDS011;12598;62.382;17.344;2023-01-28T00:13:19;1.48;;;0.60;;
13477;SDS011;12598;62.382;17.344;2023-01-28T00:14:21;1.23;;;0.75;;
13477;SDS011;12598;62.382;17.344;2023-01-28T00:15:23;1.25;;;0.70;;
13477;SDS011;12598;62.382;17.344;2023-01-28T00:16:26;0.82;;;0.65;;
13477;SDS011;12598;62.382;17.344;2023-01-28T00:17:28;0.88;;;0.75;;
13477;SDS011;12598;62.382;17.344;2023-01-28T00:18:30;1.45;;;0.57;;
13477;SDS011;12598;62.382;17.344;2023-01-28T00:19:33;1.38;;;0.60;;
13477;SDS011;12598;62.382;17.344;2023-01-28T00:20:35;1.30;;;0.90;;
13477;SDS011;12598;62.382;17.344;2023-01-28T00:21:37;1.70;;;0.90;;
13477;SDS011;12598;62.382;17.344;2023-01-28T00:22:39;1.23;;;0.90;;
13477;SDS011;12598;62.382;17.344;2023-01-28T00:23:41;0.95;;;0.70;;
13477;SDS011;12598;62.382;17.344;2023-01-28T00:24:45;1.35;;;0.82;;
13477;SDS011;12598;62.382;17.344;2023-01-28T00:25:47;0.80;;;0.77;;
13477;SDS011;12598;62.382;17.344;2023-01-28T00:26:49;1.55;;;1.10;;
13477;SDS011;12598;62.382;17.344;2023-01-28T00:27:51;2.05;;;1.08;;
13477;SDS011;12598;62.382;17.344;2023-01-28T00:28:53;1.02;;;0.82;;
13477;SDS011;12598;62.382;17.344;2023-01-28T00:29:55;0.70;;;0.63;;
13477;SDS011;12598;62.382;17.344;2023-01-28T00:30:57;0.88;;;0.73;;
13477;SDS011;12598;62.382;17.344;2023-01-28T00:32:00;1.10;;;0.85;;
13477;SDS011;12598;62.382;17.344;2023-01-28T00:33:03;1.38;;;0.80;;
13477;SDS011;12598;62.382;17.344;2023-01-28T00:34:04;1.10;;;0.80;;
13477;SDS011;12598;62.382;17.344;2023-01-28T00:35:06;1.35;;;0.80;;
13477;SDS011;12598;62.382;17.344;2023-01-28T00:36:09;0.75;;;0.73;;
13477;SDS011;12598;62.382;17.344;2023-01-28T00:37:11;1.88;;;1.00;;
13477;SDS011;12598;62.382;17.344;2023-01-28T00:38:13;1.17;;;0.70;;
13477;SDS011;12598;62.382;17.344;2023-01-28T00:39:15;0.82;;;0.57;;
13477;SDS011;12598;62.382;17.344;2023-01-28T00:40:17;1.15;;;0.60;;
13477;SDS011;12598;62.382;17.344;2023-01-28T00:41:19;1.80;;;0.70;;
13477;SDS011;12598;62.382;17.344;2023-01-28T00:42:24;0.93;;;0.50;;
13477;SDS011;12598;62.382;17.344;2023-01-28T00:43:29;1.17;;;0.70;;
13477;SDS011;12598;62.382;17.344;2023-01-28T00:44:31;0.95;;;0.57;;
13477;SDS011;12598;62.382;17.344;2023-01-28T00:45:36;1.27;;;0.80;;
13477;SDS011;12598;62.382;17.344;2023-01-28T00:46:39;0.68;;;0.60;;
13477;SDS011;12598;62.382;17.344;2023-01-28T00:47:42;1.02;;;0.70;;
13477;SDS011;12598;62.382;17.344;2023-01-28T00:48:45;1.15;;;0.60;;
13477;SDS011;12598;62.382;17.344;2023-01-28T00:49:48;0.63;;;0.50;;
13477;SDS011;12598;62.382;17.344;2023-01-28T00:50:50;0.70;;;0.60;;
13477;SDS011;12598;62.382;17.344;2023-01-28T00:51:51;0.45;;;0.45;;
13477;SDS011;12598;62.382;17.344;2023-01-28T00:52:53;0.50;;;0.47;;
13477;SDS011;12598;62.382;17.344;2023-01-28T00:53:55;1.50;;;0.63;;
13477;SDS011;12598;62.382;17.344;2023-01-28T00:54:57;0.65;;;0.55;;
13477;SDS011;12598;62.382;17.344;2023-01-28T00:55:59;1.48;;;0.70;;
13477;SDS011;12598;62.382;17.344;2023-01-28T00:57:01;0.68;;;0.40;;
13477;SDS011;12598;62.382;17.344;2023-01-28T00:58:03;1.23;;;0.55;;
13477;SDS011;12598;62.382;17.344;2023-01-28T00:59:05;1.35;;;0.50;;
13477;SDS011;12598;62.382;17.344;2023-01-28T01:00:07;0.95;;;0.70;;
13477;SDS011;12598;62.382;17.344;2023-01-28T01:01:10;0.57;;;0.40;;
13477;SDS011;12598;62.382;17.344;2023-01-28T01:02:16;0.63;;;0.55;;
13477;SDS011;12598;62.382;17.344;2023-01-28T01:03:19;0.88;;;0.63;;
13477;SDS011;12598;62.382;17.344;2023-01-28T01:04:21;1.10;;;0.70;;
13477;SDS011;12598;62.382;17.344;2023-01-28T01:05:27;0.80;;;0.60;;
13477;SDS011;12598;62.382;17.344;2023-01-28T01:06:34;0.65;;;0.50;;
13477;SDS011;12598;62.382;17.344;2023-01-28T01:07:37;0.70;;;0.50;;
13477;SDS011;12598;62.382;17.344;2023-01-28T01:08:42;1.05;;;0.60;;
13477;SDS011;12598;62.382;17.344;2023-01-28T01:09:51;1.15;;;0.40;;
13477;SDS011;12598;62.382;17.344;2023-01-28T01:10:57;0.50;;;0.40;;
13477;SDS011;12598;62.382;17.344;2023-01-28T01:11:59;0.77;;;0.60;;
13477;SDS011;12598;62.382;17.344;2023-01-28T01:13:01;0.80;;;0.60;;
13477;SDS011;12598;62.382;17.344;2023-01-28T01:14:04;0.50;;;0.40;;
13477;SDS011;12598;62.382;17.344;2023-01-28T01:15:08;0.55;;;0.52;;
13477;SDS011;12598;62.382;17.344;2023-01-28T01:16:12;0.57;;;0.40;;
13477;SDS011;12598;62.382;17.344;2023-01-28T01:17:16;0.68;;;0.43;;
13477;SDS011;12598;62.382;17.344;2023-01-28T01:18:19;0.55;;;0.45;;
13477;SDS011;12598;62.382;17.344;2023-01-28T01:19:21;0.55;;;0.50;;
13477;SDS011;12598;62.382;17.344;2023-01-28T01:20:23;1.05;;;0.45;;
13477;SDS011;12598;62.382;17.344;2023-01-28T01:21:27;0.63;;;0.60;;
13477;SDS011;12598;62.382;17.344;2023-01-28T01:22:36;0.75;;;0.40;;
13477;SDS011;12598;62.382;17.344;2023-01-28T01:23:38;0.60;;;0.60;;
13477;SDS011;12598;62.382;17.344;2023-01-28T01:24:40;0.47;;;0.30;;
13477;SDS011;12598;62.382;17.344;2023-01-28T01:25:42;0.40;;;0.30;;
13477;SDS011;12598;62.382;17.344;2023-01-28T01:26:44;0.68;;;0.50;;
13477;SDS011;12598;62.382;17.344;2023-01-28T01:27:47;0.52;;;0.40;;
13477;SDS011;12598;62.382;17.344;2023-01-28T01:28:51;0.57;;;0.50;;
13477;SDS011;12598;62.382;17.344;2023-01-28T01:29:53;0.40;;;0.40;;
13477;SDS011;12598;62.382;17.344;2023-01-28T01:31:02;0.47;;;0.40;;
13477;SDS011;12598;62.382;17.344;2023-01-28T01:32:06;0.50;;;0.40;;
13477;SDS011;12598;62.382;17.344;2023-01-28T01:33:08;0.55;;;0.35;;
13477;SDS011;12598;62.382;17.344;2023-01-28T01:34:10;0.43;;;0.32;;
13477;SDS011;12598;62.382;17.344;2023-01-28T01:35:12;0.65;;;0.40;;
13477;SDS011;12598;62.382;17.344;2023-01-28T01:36:15;0.63;;;0.40;;
13477;SDS011;12598;62.382;17.344;2023-01-28T01:37:18;0.57;;;0.40;;
13477;SDS011;12598;62.382;17.344;2023-01-28T01:38:20;0.68;;;0.43;;
13477;SDS011;12598;62.382;17.344;2023-01-28T01:39:22;0.70;;;0.50;;
13477;SDS011;12598;62.382;17.344;2023-01-28T01:40:24;0.85;;;0.50;;
13477;SDS011;12598;62.382;17.344;2023-01-28T01:41:27;1.10;;;0.43;;
13477;SDS011;12598;62.382;17.344;2023-01-28T01:42:31;0.80;;;0.43;;
13477;SDS011;12598;62.382;17.344;2023-01-28T01:45:05;0.35;;;0.28;;
13477;SDS011;12598;62.382;17.344;2023-01-28T01:46:09;0.88;;;0.22;;
13477;SDS011;12598;62.382;17.344;2023-01-28T01:47:11;0.60;;;0.40;;
13477;SDS011;12598;62.382;17.344;2023-01-28T01:48:15;0.80;;;0.47;;
13477;SDS011;12598;62.382;17.344;2023-01-28T01:49:24;0.70;;;0.47;;
13477;SDS011;12598;62.382;17.344;2023-01-28T01:50:28;0.82;;;0.57;;
13477;SDS011;12598;62.382;17.344;2023-01-28T01:51:34;0.40;;;0.38;;
13477;SDS011;12598;62.382;17.344;2023-01-28T01:52:38;0.55;;;0.47;;
13477;SDS011;12598;62.382;17.344;2023-01-28T01:53:43;0.43;;;0.30;;
13477;SDS011;12598;62.382;17.344;2023-01-28T01:54:49;1.13;;;0.50;;
13477;SDS011;12598;62.382;17.344;2023-01-28T01:55:56;0.40;;;0.40;;
13477;SDS011;12598;62.382;17.344;2023-01-28T01:57:03;0.30;;;0.28;;
13477;SDS011;12598;62.382;17.344;2023-01-28T01:58:10;0.60;;;0.38;;
13477;SDS011;12598;62.382;17.344;2023-01-28T01:59:17;0.30;;;0.30;;
13477;SDS011;12598;62.382;17.344;2023-01-28T02:00:26;0.20;;;0.20;;
13477;SDS011;12598;62.382;17.344;2023-01-28T02:01:28;0.40;;;0.40;;
13477;SDS011;12598;62.382;17.344;2023-01-28T02:02:38;0.30;;;0.30;;
13477;SDS011;12598;62.382;17.344;2023-01-28T02:04:44;0.50;;;0.30;;
13477;SDS011;12598;62.382;17.344;2023-01-28T02:05:49;0.60;;;0.40;;
13477;SDS011;12598;62.382;17.344;2023-01-28T02:06:51;0.85;;;0.50;;
13477;SDS011;12598;62.382;17.344;2023-01-28T02:07:55;0.60;;;0.40;;
13477;SDS011;12598;62.382;17.344;2023-01-28T02:09:37;0.45;;;0.40;;
13477;SDS011;12598;62.382;17.344;2023-01-28T02:10:42;0.40;;;0.38;;
13477;SDS011;12598;62.382;17.344;2023-01-28T02:11:45;0.50;;;0.40;;
13477;SDS011;12598;62.382;17.344;2023-01-28T02:12:49;0.50;;;0.45;;
13477;SDS011;12598;62.382;17.344;2023-01-28T02:14:00;0.40;;;0.30;;
13477;SDS011;12598;62.382;17.344;2023-01-28T02:15:06;0.30;;;0.30;;
13477;SDS011;12598;62.382;17.344;2023-01-28T02:16:10;0.30;;;0.30;;
13477;SDS011;12598;62.382;17.344;2023-01-28T02:17:12;0.40;;;0.30;;
13477;SDS011;12598;62.382;17.344;2023-01-28T02:18:15;0.40;;;0.40;;
13477;SDS011;12598;62.382;17.344;2023-01-28T02:19:17;0.45;;;0.40;;
13477;SDS011;12598;62.382;17.344;2023-01-28T02:20:25;0.40;;;0.22;;
13477;SDS011;12598;62.382;17.344;2023-01-28T02:24:35;0.50;;;0.30;;
13477;SDS011;12598;62.382;17.344;2023-01-28T02:26:08;0.20;;;0.20;;
13477;SDS011;12598;62.382;17.344;2023-01-28T02:27:15;0.35;;;0.30;;
13477;SDS011;12598;62.382;17.344;2023-01-28T02:30:10;0.50;;;0.30;;
13477;SDS011;12598;62.382;17.344;2023-01-28T02:31:28;0.38;;;0.30;;
13477;SDS011;12598;62.382;17.344;2023-01-28T02:36:18;0.43;;;0.30;;
13477;SDS011;12598;62.382;17.344;2023-01-28T02:39:12;0.20;;;0.10;;
13477;SDS011;12598;62.382;17.344;2023-01-28T02:40:26;0.60;;;0.40;;
13477;SDS011;12598;62.382;17.344;2023-01-28T02:41:32;0.35;;;0.20;;
13477;SDS011;12598;62.382;17.344;2023-01-28T02:42:41;0.50;;;0.30;;
13477;SDS011;12598;62.382;17.344;2023-01-28T02:43:44;0.55;;;0.30;;
13477;SDS011;12598;62.382;17.344;2023-01-28T02:44:47;0.65;;;0.35;;
13477;SDS011;12598;62.382;17.344;2023-01-28T02:45:49;0.32;;;0.22;;
13477;SDS011;12598;62.382;17.344;2023-01-28T02:47:10;0.40;;;0.30;;
13477;SDS011;12598;62.382;17.344;2023-01-28T02:48:31;0.38;;;0.30;;
13477;SDS011;12598;62.382;17.344;2023-01-28T02:51:04;0.47;;;0.47;;
13477;SDS011;12598;62.382;17.344;2023-01-28T02:52:31;0.28;;;0.25;;
13477;SDS011;12598;62.382;17.344;2023-01-28T02:56:51;0.93;;;0.30;;
13477;SDS011;12598;62.382;17.344;2023-01-28T02:58:23;0.68;;;0.40;;
13477;SDS011;12598;62.382;17.344;2023-01-28T02:59:41;0.35;;;0.25;;
13477;SDS011;12598;62.382;17.344;2023-01-28T03:01:09;0.82;;;0.40;;
13477;SDS011;12598;62.382;17.344;2023-01-28T03:05:16;0.45;;;0.40;;
13477;SDS011;12598;62.382;17.344;2023-01-28T03:06:24;0.45;;;0.40;;
13477;SDS011;12598;62.382;17.344;2023-01-28T03:07:34;0.47;;;0.30;;
13477;SDS011;12598;62.382;17.344;2023-01-28T03:08:39;0.40;;;0.40;;
13477;SDS011;12598;62.382;17.344;2023-01-28T03:10:05;0.50;;;0.30;;
13477;SDS011;12598;62.382;17.344;2023-01-28T03:11:13;0.40;;;0.40;;
13477;SDS011;12598;62.382;17.344;2023-01-28T03:12:34;0.70;;;0.30;;
13477;SDS011;12598;62.382;17.344;2023-01-28T03:13:58;2.22;;;0.40;;
13477;SDS011;12598;62.382;17.344;2023-01-28T03:16:42;0.28;;;0.20;;
13477;SDS011;12598;62.382;17.344;2023-01-28T03:19:26;0.55;;;0.20;;
13477;SDS011;12598;62.382;17.344;2023-01-28T03:21:01;0.35;;;0.30;;
13477;SDS011;12598;62.382;17.344;2023-01-28T03:22:25;0.88;;;0.50;;
13477;SDS011;12598;62.382;17.344;2023-01-28T03:25:27;0.60;;;0.30;;
13477;SDS011;12598;62.382;17.344;2023-01-28T03:26:53;0.40;;;0.40;;
13477;SDS011;12598;62.382;17.344;2023-01-28T03:28:29;0.47;;;0.30;;
13477;SDS011;12598;62.382;17.344;2023-01-28T03:29:52;0.40;;;0.30;;
13477;SDS011;12598;62.382;17.344;2023-01-28T03:31:18;0.40;;;0.30;;
13477;SDS011;12598;62.382;17.344;2023-01-28T03:32:41;0.30;;;0.25;;
13477;SDS011;12598;62.382;17.344;2023-01-28T03:34:03;0.30;;;0.30;;
13477;SDS011;12598;62.382;17.344;2023-01-28T03:35:25;0.40;;;0.20;;
13477;SDS011;12598;62.382;17.344;2023-01-28T03:36:50;0.40;;;0.40;;
13477;SDS011;12598;62.382;17.344;2023-01-28T03:38:15;0.60;;;0.40;;
13477;SDS011;12598;62.382;17.344;2023-01-28T03:39:25;0.73;;;0.30;;
13477;SDS011;12598;62.382;17.344;2023-01-28T03:40:28;0.73;;;0.40;;
13477;SDS011;12598;62.382;17.344;2023-01-28T03:41:30;0.40;;;0.30;;
13477;SDS011;12598;62.382;17.344;2023-01-28T03:42:32;0.57;;;0.30;;
13477;SDS011;12598;62.382;17.344;2023-01-28T03:43:57;0.50;;;0.35;;
13477;SDS011;12598;62.382;17.344;2023-01-28T03:45:20;0.50;;;0.30;;
13477;SDS011;12598;62.382;17.344;2023-01-28T03:46:22;0.25;;;0.20;;
13477;SDS011;12598;62.382;17.344;2023-01-28T03:47:25;0.52;;;0.47;;
13477;SDS011;12598;62.382;17.344;2023-01-28T03:48:31;0.60;;;0.40;;
13477;SDS011;12598;62.382;17.344;2023-01-28T03:49:43;0.40;;;0.30;;
13477;SDS011;12598;62.382;17.344;2023-01-28T03:50:52;0.50;;;0.30;;
13477;SDS011;12598;62.382;17.344;2023-01-28T03:51:58;0.30;;;0.25;;
13477;SDS011;12598;62.382;17.344;2023-01-28T03:52:59;0.30;;;0.20;;
13477;SDS011;12598;62.382;17.344;2023-01-28T03:54:20;0.60;;;0.40;;
13477;SDS011;12598;62.382;17.344;2023-01-28T03:55:22;0.20;;;0.20;;
13477;SDS011;12598;62.382;17.344;2023-01-28T03:56:26;0.40;;;0.30;;
13477;SDS011;12598;62.382;17.344;2023-01-28T03:57:33;0.47;;;0.30;;
13477;SDS011;12598;62.382;17.344;2023-01-28T03:58:35;0.32;;;0.30;;
13477;SDS011;12598;62.382;17.344;2023-01-28T03:59:57;0.47;;;0.28;;
13477;SDS011;12598;62.382;17.344;2023-01-28T04:01:00;0.28;;;0.22;;
13477;SDS011;12598;62.382;17.344;2023-01-28T04:02:02;0.40;;;0.40;;
13477;SDS011;12598;62.382;17.344;2023-01-28T04:03:04;0.50;;;0.32;;
13477;SDS011;12598;62.382;17.344;2023-01-28T04:04:21;0.30;;;0.30;;
13477;SDS011;12598;62.382;17.344;2023-01-28T04:05:27;0.40;;;0.25;;
13477;SDS011;12598;62.382;17.344;2023-01-28T04:06:31;0.50;;;0.40;;
13477;SDS011;12598;62.382;17.344;2023-01-28T04:08:11;0.68;;;0.40;;
13477;SDS011;12598;62.382;17.344;2023-01-28T04:09:37;0.30;;;0.20;;
13477;SDS011;12598;62.382;17.344;2023-01-28T04:11:01;0.40;;;0.20;;
13477;SDS011;12598;62.382;17.344;2023-01-28T04:12:21;0.40;;;0.30;;
13477;SDS011;12598;62.382;17.344;2023-01-28T04:13:26;0.47;;;0.30;;
13477;SDS011;12598;62.382;17.344;2023-01-28T04:14:28;0.30;;;0.20;;
13477;SDS011;12598;62.382;17.344;2023-01-28T04:15:55;0.20;;;0.20;;
13477;SDS011;12598;62.382;17.344;2023-01-28T04:16:58;0.50;;;0.40;;
13477;SDS011;12598;62.382;17.344;2023-01-28T04:18:00;0.32;;;0.25;;
13477;SDS011;12598;62.382;17.344;2023-01-28T04:19:03;0.38;;;0.30;;
13477;SDS011;12598;62.382;17.344;2023-01-28T04:20:06;0.30;;;0.30;;
13477;SDS011;12598;62.382;17.344;2023-01-28T04:21:09;0.30;;;0.30;;
13477;SDS011;12598;62.382;17.344;2023-01-28T04:22:11;0.55;;;0.32;;
13477;SDS011;12598;62.382;17.344;2023-01-28T04:23:15;0.60;;;0.40;;
13477;SDS011;12598;62.382;17.344;2023-01-28T04:24:18;0.45;;;0.30;;
13477;SDS011;12598;62.382;17.344;2023-01-28T04:25:20;0.30;;;0.10;;
13477;SDS011;12598;62.382;17.344;2023-01-28T04:26:22;0.30;;;0.30;;
13477;SDS011;12598;62.382;17.344;2023-01-28T04:27:24;0.30;;;0.30;;
13477;SDS011;12598;62.382;17.344;2023-01-28T04:28:26;0.63;;;0.35;;
13477;SDS011;12598;62.382;17.344;2023-01-28T04:29:28;0.35;;;0.20;;
13477;SDS011;12598;62.382;17.344;2023-01-28T04:30:34;0.30;;;0.20;;
13477;SDS011;12598;62.382;17.344;2023-01-28T04:31:46;0.25;;;0.20;;
13477;SDS011;12598;62.382;17.344;2023-01-28T04:33:11;0.52;;;0.35;;
13477;SDS011;12598;62.382;17.344;2023-01-28T04:34:28;0.30;;;0.30;;
13477;SDS011;12598;62.382;17.344;2023-01-28T04:35:58;0.20;;;0.20;;
13477;SDS011;12598;62.382;17.344;2023-01-28T04:37:17;0.20;;;0.20;;
13477;SDS011;12598;62.382;17.344;2023-01-28T04:38:38;0.43;;;0.30;;
13477;SDS011;12598;62.382;17.344;2023-01-28T04:40:01;0.65;;;0.30;;
13477;SDS011;12598;62.382;17.344;2023-01-28T04:41:15;0.25;;;0.20;;
13477;SDS011;12598;62.382;17.344;2023-01-28T04:42:17;0.40;;;0.22;;
13477;SDS011;12598;62.382;17.344;2023-01-28T04:43:41;0.80;;;0.28;;
13477;SDS011;12598;62.382;17.344;2023-01-28T04:45:06;0.28;;;0.20;;
13477;SDS011;12598;62.382;17.344;2023-01-28T04:46:31;0.30;;;0.22;;
13477;SDS011;12598;62.382;17.344;2023-01-28T04:47:36;0.55;;;0.35;;
13477;SDS011;12598;62.382;17.344;2023-01-28T04:49:06;1.23;;;0.52;;
13477;SDS011;12598;62.382;17.344;2023-01-28T04:50:20;0.28;;;0.28;;
13477;SDS011;12598;62.382;17.344;2023-01-28T04:51:51;0.22;;;0.20;;
13477;SDS011;12598;62.382;17.344;2023-01-28T04:53:19;0.68;;;0.30;;
13477;SDS011;12598;62.382;17.344;2023-01-28T04:54:31;0.25;;;0.25;;
13477;SDS011;12598;62.382;17.344;2023-01-28T04:55:36;1.52;;;0.30;;
13477;SDS011;12598;62.382;17.344;2023-01-28T04:56:38;0.30;;;0.30;;
13477;SDS011;12598;62.382;17.344;2023-01-28T04:57:40;0.47;;;0.30;;
13477;SDS011;12598;62.382;17.344;2023-01-28T04:58:42;0.20;;;0.20;;
13477;SDS011;12598;62.382;17.344;2023-01-28T04:59:48;0.35;;;0.22;;
13477;SDS011;12598;62.382;17.344;2023-01-28T05:00:52;0.50;;;0.10;;
13477;SDS011;12598;62.382;17.344;2023-01-28T05:01:56;0.35;;;0.30;;
13477;SDS011;12598;62.382;17.344;2023-01-28T05:02:58;0.40;;;0.40;;
13477;SDS011;12598;62.382;17.344;2023-01-28T05:04:00;0.40;;;0.35;;
13477;SDS011;12598;62.382;17.344;2023-01-28T05:05:08;0.28;;;0.20;;
13477;SDS011;12598;62.382;17.344;2023-01-28T05:06:27;0.40;;;0.40;;
13477;SDS011;12598;62.382;17.344;2023-01-28T05:07:35;0.32;;;0.20;;
13477;SDS011;12598;62.382;17.344;2023-01-28T05:08:37;0.40;;;0.32;;
13477;SDS011;12598;62.382;17.344;2023-01-28T05:09:39;0.20;;;0.20;;
13477;SDS011;12598;62.382;17.344;2023-01-28T05:10:42;0.30;;;0.30;;
13477;SDS011;12598;62.382;17.344;2023-01-28T05:11:44;0.30;;;0.20;;
13477;SDS011;12598;62.382;17.344;2023-01-28T05:12:47;0.50;;;0.30;;
13477;SDS011;12598;62.382;17.344;2023-01-28T05:13:50;0.30;;;0.20;;
13477;SDS011;12598;62.382;17.344;2023-01-28T05:14:53;0.30;;;0.20;;
13477;SDS011;12598;62.382;17.344;2023-01-28T05:15:55;0.28;;;0.22;;
13477;SDS011;12598;62.382;17.344;2023-01-28T05:16:57;1.65;;;0.40;;
13477;SDS011;12598;62.382;17.344;2023-01-28T05:17:59;0.20;;;0.20;;
13477;SDS011;12598;62.382;17.344;2023-01-28T05:19:07;0.30;;;0.20;;
13477;SDS011;12598;62.382;17.344;2023-01-28T05:20:16;0.90;;;0.40;;
13477;SDS011;12598;62.382;17.344;2023-01-28T05:21:21;0.57;;;0.40;;
13477;SDS011;12598;62.382;17.344;2023-01-28T05:22:29;0.30;;;0.28;;
13477;SDS011;12598;62.382;17.344;2023-01-28T05:23:49;0.40;;;0.30;;
13477;SDS011;12598;62.382;17.344;2023-01-28T05:24:51;0.30;;;0.30;;
13477;SDS011;12598;62.382;17.344;2023-01-28T05:25:53;1.23;;;0.20;;
13477;SDS011;12598;62.382;17.344;2023-01-28T05:26:56;0.40;;;0.35;;
13477;SDS011;12598;62.382;17.344;2023-01-28T05:27:58;0.40;;;0.30;;
13477;SDS011;12598;62.382;17.344;2023-01-28T05:29:00;0.55;;;0.30;;
13477;SDS011;12598;62.382;17.344;2023-01-28T05:30:02;0.43;;;0.30;;
13477;SDS011;12598;62.382;17.344;2023-01-28T05:31:06;0.20;;;0.20;;
13477;SDS011;12598;62.382;17.344;2023-01-28T05:32:08;0.77;;;0.30;;
13477;SDS011;12598;62.382;17.344;2023-01-28T05:33:10;0.38;;;0.20;;
13477;SDS011;12598;62.382;17.344;2023-01-28T05:34:12;0.35;;;0.20;;
13477;SDS011;12598;62.382;17.344;2023-01-28T05:35:14;0.32;;;0.30;;
13477;SDS011;12598;62.382;17.344;2023-01-28T05:36:17;0.30;;;0.30;;
13477;SDS011;12598;62.382;17.344;2023-01-28T05:37:20;0.63;;;0.30;;
13477;SDS011;12598;62.382;17.344;2023-01-28T05:38:24;0.20;;;0.20;;
13477;SDS011;12598;62.382;17.344;2023-01-28T05:39:26;0.35;;;0.28;;
13477;SDS011;12598;62.382;17.344;2023-01-28T05:40:28;0.30;;;0.20;;
13477;SDS011;12598;62.382;17.344;2023-01-28T05:41:30;0.40;;;0.30;;
13477;SDS011;12598;62.382;17.344;2023-01-28T05:42:35;0.30;;;0.30;;
13477;SDS011;12598;62.382;17.344;2023-01-28T05:43:53;0.30;;;0.25;;
13477;SDS011;12598;62.382;17.344;2023-01-28T05:45:25;0.30;;;0.30;;
13477;SDS011;12598;62.382;17.344;2023-01-28T05:46:44;0.93;;;0.40;;
13477;SDS011;12598;62.382;17.344;2023-01-28T05:48:09;0.30;;;0.25;;
13477;SDS011;12598;62.382;17.344;2023-01-28T05:49:31;0.35;;;0.20;;
13477;SDS011;12598;62.382;17.344;2023-01-28T05:50:52;0.30;;;0.22;;
13477;SDS011;12598;62.382;17.344;2023-01-28T05:52:02;0.50;;;0.38;;
13477;SDS011;12598;62.382;17.344;2023-01-28T05:53:05;0.47;;;0.22;;
13477;SDS011;12598;62.382;17.344;2023-01-28T05:54:08;0.35;;;0.30;;
13477;SDS011;12598;62.382;17.344;2023-01-28T05:55:10;0.20;;;0.20;;
13477;SDS011;12598;62.382;17.344;2023-01-28T05:56:12;0.47;;;0.20;;
13477;SDS011;12598;62.382;17.344;2023-01-28T05:57:15;0.88;;;0.32;;
13477;SDS011;12598;62.382;17.344;2023-01-28T05:58:18;0.60;;;0.20;;
13477;SDS011;12598;62.382;17.344;2023-01-28T05:59:20;0.50;;;0.30;;
13477;SDS011;12598;62.382;17.344;2023-01-28T06:00:24;0.55;;;0.35;;
13477;SDS011;12598;62.382;17.344;2023-01-28T06:01:26;0.52;;;0.30;;
13477;SDS011;12598;62.382;17.344;2023-01-28T06:02:28;0.20;;;0.20;;
13477;SDS011;12598;62.382;17.344;2023-01-28T06:03:33;0.20;;;0.20;;
13477;SDS011;12598;62.382;17.344;2023-01-28T06:04:35;0.40;;;0.40;;
13477;SDS011;12598;62.382;17.344;2023-01-28T06:05:37;0.30;;;0.30;;
13477;SDS011;12598;62.382;17.344;2023-01-28T06:06:40;0.30;;;0.28;;
13477;SDS011;12598;62.382;17.344;2023-01-28T06:07:48;0.57;;;0.30;;
13477;SDS011;12598;62.382;17.344;2023-01-28T06:08:50;0.30;;;0.30;;
13477;SDS011;12598;62.382;17.344;2023-01-28T06:09:58;0.50;;;0.30;;
13477;SDS011;12598;62.382;17.344;2023-01-28T06:11:00;0.20;;;0.20;;
13477;SDS011;12598;62.382;17.344;2023-01-28T06:12:06;0.55;;;0.30;;
13477;SDS011;12598;62.382;17.344;2023-01-28T06:13:19;0.40;;;0.20;;
13477;SDS011;12598;62.382;17.344;2023-01-28T06:14:49;0.35;;;0.30;;
13477;SDS011;12598;62.382;17.344;2023-01-28T06:16:10;0.20;;;0.20;;
13477;SDS011;12598;62.382;17.344;2023-01-28T06:17:21;0.30;;;0.30;;
13477;SDS011;12598;62.382;17.344;2023-01-28T06:18:35;1.58;;;0.30;;
13477;SDS011;12598;62.382;17.344;2023-01-28T06:19:37;0.47;;;0.32;;
13477;SDS011;12598;62.382;17.344;2023-01-28T06:20:40;0.30;;;0.30;;
13477;SDS011;12598;62.382;17.344;2023-01-28T06:21:43;0.20;;;0.20;;
13477;SDS011;12598;62.382;17.344;2023-01-28T06:22:45;0.60;;;0.28;;
13477;SDS011;12598;62.382;17.344;2023-01-28T06:23:47;1.00;;;0.25;;
13477;SDS011;12598;62.382;17.344;2023-01-28T06:24:49;0.63;;;0.30;;
13477;SDS011;12598;62.382;17.344;2023-01-28T06:25:54;1.25;;;0.55;;
13477;SDS011;12598;62.382;17.344;2023-01-28T06:26:58;0.40;;;0.38;;
13477;SDS011;12598;62.382;17.344;2023-01-28T06:27:59;0.50;;;0.30;;
13477;SDS011;12598;62.382;17.344;2023-01-28T06:29:01;0.38;;;0.25;;
13477;SDS011;12598;62.382;17.344;2023-01-28T06:30:03;0.30;;;0.30;;
13477;SDS011;12598;62.382;17.344;2023-01-28T06:31:06;0.43;;;0.40;;
13477;SDS011;12598;62.382;17.344;2023-01-28T06:32:08;0.55;;;0.30;;
13477;SDS011;12598;62.382;17.344;2023-01-28T06:33:10;0.50;;;0.40;;
13477;SDS011;12598;62.382;17.344;2023-01-28T06:34:12;0.22;;;0.22;;
13477;SDS011;12598;62.382;17.344;2023-01-28T06:35:14;0.40;;;0.30;;
13477;SDS011;12598;62.382;17.344;2023-01-28T06:36:16;0.30;;;0.30;;
13477;SDS011;12598;62.382;17.344;2023-01-28T06:37:17;0.80;;;0.30;;
13477;SDS011;12598;62.382;17.344;2023-01-28T06:38:19;0.70;;;0.30;;
13477;SDS011;12598;62.382;17.344;2023-01-28T06:39:21;0.22;;;0.22;;
13477;SDS011;12598;62.382;17.344;2023-01-28T06:40:24;0.40;;;0.32;;
13477;SDS011;12598;62.382;17.344;2023-01-28T06:41:26;1.00;;;0.35;;
13477;SDS011;12598;62.382;17.344;2023-01-28T06:42:28;0.20;;;0.20;;
13477;SDS011;12598;62.382;17.344;2023-01-28T06:43:29;0.50;;;0.30;;
13477;SDS011;12598;62.382;17.344;2023-01-28T06:44:31;0.32;;;0.20;;
13477;SDS011;12598;62.382;17.344;2023-01-28T06:45:33;0.30;;;0.25;;
13477;SDS011;12598;62.382;17.344;2023-01-28T06:46:35;0.40;;;0.25;;
13477;SDS011;12598;62.382;17.344;2023-01-28T06:47:37;0.30;;;0.30;;
13477;SDS011;12598;62.382;17.344;2023-01-28T06:48:40;0.38;;;0.28;;
13477;SDS011;12598;62.382;17.344;2023-01-28T06:49:42;0.20;;;0.20;;
13477;SDS011;12598;62.382;17.344;2023-01-28T06:50:45;0.40;;;0.30;;
13477;SDS011;12598;62.382;17.344;2023-01-28T06:51:48;0.20;;;0.20;;
13477;SDS011;12598;62.382;17.344;2023-01-28T06:52:49;0.32;;;0.30;;
13477;SDS011;12598;62.382;17.344;2023-01-28T06:53:51;0.40;;;0.22;;
13477;SDS011;12598;62.382;17.344;2023-01-28T06:54:53;0.30;;;0.25;;
13477;SDS011;12598;62.382;17.344;2023-01-28T06:55:55;0.30;;;0.30;;
13477;SDS011;12598;62.382;17.344;2023-01-28T06:56:57;0.28;;;0.28;;
13477;SDS011;12598;62.382;17.344;2023-01-28T06:57:59;0.45;;;0.20;;
13477;SDS011;12598;62.382;17.344;2023-01-28T06:59:01;0.32;;;0.30;;
13477;SDS011;12598;62.382;17.344;2023-01-28T07:00:03;0.40;;;0.28;;
13477;SDS011;12598;62.382;17.344;2023-01-28T07:01:06;0.47;;;0.22;;
13477;SDS011;12598;62.382;17.344;2023-01-28T07:02:09;0.50;;;0.22;;
13477;SDS011;12598;62.382;17.344;2023-01-28T07:03:12;0.70;;;0.20;;